Orlando, FL (32807)

9:16 AM EDT en Marzo 29, 2017 (GMT -0400)
Azalea Park | | Change Station

Alt 104 ft 28.54 °N, 81.30 °W | Updated 3 seconds ago

Clear
Despejado
73.6 ° F
Sensación térmica 74 ° F
N
0.0
Viento Variable Viento desde Oeste
Gusts 4.4 mph

Hoy
Alta -- | Baja -- ° F
--% Posibilidad de precipitaciones
Ayer
Alta -- | Baja -- ° F
Precip. -- pul
Presión 30.06 pul
Visibilidad 10.0 Millas
Nubes Despejado
Índice de calor 74 ° F
Punto de rocío 67 ° F
Humedad 80%
Precipitaciones 0.00 pul
Espesor de la nieve No disponible.
7:18 AM 7:41 PM
Creciente, 3% visible
METAR KORL 291253Z 27004KT 10SM CLR 23/18 A3005 RMK AO2 SLP177 T02280178
Presión 30.06 pul
Visibilidad 10.0 Millas
Nubes Despejado
Índice de calor 74 ° F
Punto de rocío 67 ° F
Humedad 80%
Precipitaciones 0.00 pul
Espesor de la nieve No disponible.
7:18 AM 7:41 PM
Creciente, 3% visible
METAR KORL 291253Z 27004KT 10SM CLR 23/18 A3005 RMK AO2 SLP177 T02280178

Get Severe Weather Alerts

Thanks for signing up!

Be on the lookout for a verification email in your inbox.

You'll start receiving the daily forecast at 8 AM.

×

10-Day Weather Forecast

Almanac

Astronomía

Mar. 29, 2017 Salida Puesta
Hora real
Crepúsculo civil
Crepúsculo náutico
Crepúsculo astronómico
Luna
Horas de luz
Horas de luz
Tomorrow will be .
, % of the Moon is Illuminated

Extremos de hoy

Máximos del estado Bajos del estado

Community

WunderPhotos

Upload Photos

1,962,540 ¡fotos cargadas!

WunderBlog® & News

Nearby

Calidad del aire

  Calidad del aire Índice AQ Contaminante
Not available.

Grosos de nieve

Estación Profundido Altura

Actividad de terremotos

Ciudad Distance Mag. Tiempo y dato
Magnitud mínima muestra es 2,5.

Actividad de terremotos

Ciudad Distance Mag. Tiempo y dato
Magnitud mínima muestra es 2,5.

Temperaturas de aguas costeras

Lugar Temperatura

Stations

Estaciones meteorológicas cercanas

Ubicación de la estación Temp. Vientos helados Punto de rocío Humedad Viento Precip. Alt Actualizado Tipo
                   

Watches & Warnings

There are currently no watches in effect.